sensor_id;sensor_type;location;lat;lon;timestamp;pressure;altitude;pressure_sealevel;temperature;humidity
20009;BME280;10165;42.662;23.260;2023-02-01T00:00:29;94179.53;;;2.08;64.46
20009;BME280;10165;42.662;23.260;2023-02-01T00:02:58;94175.19;;;2.17;65.15
20009;BME280;10165;42.662;23.260;2023-02-01T00:05:24;94180.59;;;2.53;63.20
20009;BME280;10165;42.662;23.260;2023-02-01T00:07:51;94176.75;;;2.18;63.71
20009;BME280;10165;42.662;23.260;2023-02-01T00:10:18;94185.47;;;2.32;64.20
20009;BME280;10165;42.662;23.260;2023-02-01T00:12:45;94188.09;;;2.32;63.90
20009;BME280;10165;42.662;23.260;2023-02-01T00:15:11;94181.75;;;2.33;63.43
20009;BME280;10165;42.662;23.260;2023-02-01T00:17:38;94194.41;;;2.18;63.80
20009;BME280;10165;42.662;23.260;2023-02-01T00:20:05;94192.19;;;2.25;63.97
20009;BME280;10165;42.662;23.260;2023-02-01T00:22:32;94198.16;;;1.98;64.62
20009;BME280;10165;42.662;23.260;2023-02-01T00:24:59;94187.31;;;2.32;63.32
20009;BME280;10165;42.662;23.260;2023-02-01T00:27:25;94181.75;;;2.47;62.67
20009;BME280;10165;42.662;23.260;2023-02-01T00:29:54;94184.75;;;2.13;62.99
20009;BME280;10165;42.662;23.260;2023-02-01T00:32:21;94180.78;;;1.97;64.08
20009;BME280;10165;42.662;23.260;2023-02-01T00:34:48;94182.84;;;2.00;63.14
20009;BME280;10165;42.662;23.260;2023-02-01T00:37:17;94188.09;;;2.32;62.12
20009;BME280;10165;42.662;23.260;2023-02-01T00:39:44;94180.09;;;1.73;62.07
20009;BME280;10165;42.662;23.260;2023-02-01T00:42:11;94185.41;;;2.05;62.56
20009;BME280;10165;42.662;23.260;2023-02-01T00:44:37;94177.47;;;1.91;62.17
20009;BME280;10165;42.662;23.260;2023-02-01T00:47:04;94171.31;;;2.28;61.82
20009;BME280;10165;42.662;23.260;2023-02-01T00:49:31;94171.09;;;2.38;60.94
20009;BME280;10165;42.662;23.260;2023-02-01T00:51:57;94173.94;;;2.28;60.85
20009;BME280;10165;42.662;23.260;2023-02-01T00:54:24;94172.66;;;1.80;62.24
20009;BME280;10165;42.662;23.260;2023-02-01T00:56:51;94162.34;;;2.43;60.62
20009;BME280;10165;42.662;23.260;2023-02-01T00:59:17;94176.72;;;2.64;59.76
20009;BME280;10165;42.662;23.260;2023-02-01T01:01:44;94159.97;;;2.14;61.34
20009;BME280;10165;42.662;23.260;2023-02-01T01:04:11;94167.81;;;2.60;59.42
20009;BME280;10165;42.662;23.260;2023-02-01T01:06:37;94160.97;;;2.46;59.85
20009;BME280;10165;42.662;23.260;2023-02-01T01:09:06;94163.94;;;2.12;60.67
20009;BME280;10165;42.662;23.260;2023-02-01T01:11:36;94161.94;;;2.50;59.69
20009;BME280;10165;42.662;23.260;2023-02-01T01:14:04;94159.78;;;2.24;59.75
20009;BME280;10165;42.662;23.260;2023-02-01T01:16:32;94159.97;;;2.14;59.81
20009;BME280;10165;42.662;23.260;2023-02-01T01:18:59;94164.25;;;2.10;60.05
20009;BME280;10165;42.662;23.260;2023-02-01T01:21:31;94161.69;;;2.19;59.27
20009;BME280;10165;42.662;23.260;2023-02-01T01:23:58;94161.97;;;2.63;58.32
20009;BME280;10165;42.662;23.260;2023-02-01T01:26:26;94156.88;;;2.39;58.21
20009;BME280;10165;42.662;23.260;2023-02-01T01:28:55;94154.81;;;2.36;58.13
20009;BME280;10165;42.662;23.260;2023-02-01T01:31:22;94153.91;;;2.14;59.01
20009;BME280;10165;42.662;23.260;2023-02-01T01:33:52;94158.38;;;1.49;59.73
20009;BME280;10165;42.662;23.260;2023-02-01T01:36:19;94162.56;;;1.50;60.81
20009;BME280;10165;42.662;23.260;2023-02-01T01:38:46;94170.16;;;1.70;60.01
20009;BME280;10165;42.662;23.260;2023-02-01T01:41:17;94172.88;;;1.65;59.85
20009;BME280;10165;42.662;23.260;2023-02-01T01:46:30;94171.09;;;1.60;60.26
20009;BME280;10165;42.662;23.260;2023-02-01T01:49:05;94175.09;;;1.20;61.17
20009;BME280;10165;42.662;23.260;2023-02-01T01:51:38;94179.75;;;1.05;61.62
20009;BME280;10165;42.662;23.260;2023-02-01T01:54:23;94172.25;;;1.17;60.79
20009;BME280;10165;42.662;23.260;2023-02-01T01:56:59;94170.34;;;1.41;60.85
20009;BME280;10165;42.662;23.260;2023-02-01T01:59:27;94178.53;;;0.97;62.08
20009;BME280;10165;42.662;23.260;2023-02-01T02:01:57;94171.88;;;1.23;61.16
20009;BME280;10165;42.662;23.260;2023-02-01T02:04:25;94175.78;;;1.63;60.14
20009;BME280;10165;42.662;23.260;2023-02-01T02:07:00;94168.19;;;1.43;59.94
20009;BME280;10165;42.662;23.260;2023-02-01T02:09:28;94170.13;;;1.37;60.98
20009;BME280;10165;42.662;23.260;2023-02-01T02:11:55;94166.81;;;1.08;61.30
20009;BME280;10165;42.662;23.260;2023-02-01T02:14:23;94160.66;;;0.99;61.68
20009;BME280;10165;42.662;23.260;2023-02-01T02:23:10;94162.78;;;1.34;60.18
20009;BME280;10165;42.662;23.260;2023-02-01T02:38:55;94173.59;;;1.33;59.18
20009;BME280;10165;42.662;23.260;2023-02-01T02:47:50;94166.97;;;1.35;59.84
20009;BME280;10165;42.662;23.260;2023-02-01T02:50:37;94164.22;;;1.46;59.09
20009;BME280;10165;42.662;23.260;2023-02-01T02:53:30;94164.84;;;1.88;58.97
20009;BME280;10165;42.662;23.260;2023-02-01T02:56:19;94166.13;;;1.40;58.50
20009;BME280;10165;42.662;23.260;2023-02-01T02:59:07;94163.44;;;1.45;58.59
20009;BME280;10165;42.662;23.260;2023-02-01T03:01:54;94175.38;;;1.37;58.48
20009;BME280;10165;42.662;23.260;2023-02-01T03:04:40;94172.81;;;0.95;59.52
20009;BME280;10165;42.662;23.260;2023-02-01T03:10:05;94175.44;;;1.51;58.68
20009;BME280;10165;42.662;23.260;2023-02-01T03:12:36;94183.28;;;1.37;59.02
20009;BME280;10165;42.662;23.260;2023-02-01T03:15:32;94185.25;;;1.27;59.10
20009;BME280;10165;42.662;23.260;2023-02-01T03:18:01;94190.38;;;1.00;59.93
20009;BME280;10165;42.662;23.260;2023-02-01T03:20:29;94191.78;;;1.67;58.53
20009;BME280;10165;42.662;23.260;2023-02-01T03:22:57;94191.97;;;1.38;59.08
20009;BME280;10165;42.662;23.260;2023-02-01T03:25:30;94192.88;;;1.47;59.11
20009;BME280;10165;42.662;23.260;2023-02-01T03:28:07;94192.28;;;1.31;59.18
20009;BME280;10165;42.662;23.260;2023-02-01T03:30:41;94189.75;;;1.45;59.85
20009;BME280;10165;42.662;23.260;2023-02-01T03:33:17;94190.25;;;1.28;59.75
20009;BME280;10165;42.662;23.260;2023-02-01T03:36:15;94182.66;;;1.78;58.13
20009;BME280;10165;42.662;23.260;2023-02-01T03:38:52;94179.00;;;1.23;59.50
20009;BME280;10165;42.662;23.260;2023-02-01T03:42:02;94183.75;;;1.39;59.64
20009;BME280;10165;42.662;23.260;2023-02-01T03:47:28;94178.84;;;1.52;59.62
20009;BME280;10165;42.662;23.260;2023-02-01T03:50:00;94184.41;;;1.50;59.44
20009;BME280;10165;42.662;23.260;2023-02-01T03:55:06;94187.25;;;1.54;59.43
20009;BME280;10165;42.662;23.260;2023-02-01T03:57:37;94183.72;;;1.44;60.00
20009;BME280;10165;42.662;23.260;2023-02-01T04:00:18;94187.16;;;1.77;59.40
20009;BME280;10165;42.662;23.260;2023-02-01T04:02:46;94195.50;;;1.28;60.19
20009;BME280;10165;42.662;23.260;2023-02-01T04:05:13;94195.03;;;1.77;59.26
20009;BME280;10165;42.662;23.260;2023-02-01T04:08:03;94200.19;;;1.87;58.92
20009;BME280;10165;42.662;23.260;2023-02-01T04:10:31;94193.69;;;1.61;59.91
20009;BME280;10165;42.662;23.260;2023-02-01T04:12:58;94190.25;;;1.47;60.72
20009;BME280;10165;42.662;23.260;2023-02-01T04:15:25;94185.03;;;1.42;61.02
20009;BME280;10165;42.662;23.260;2023-02-01T04:17:51;94190.81;;;1.63;60.42
20009;BME280;10165;42.662;23.260;2023-02-01T04:20:18;94195.16;;;1.72;60.72
20009;BME280;10165;42.662;23.260;2023-02-01T04:22:46;94189.75;;;1.96;60.21
20009;BME280;10165;42.662;23.260;2023-02-01T04:25:12;94192.06;;;1.65;60.55
20009;BME280;10165;42.662;23.260;2023-02-01T04:27:45;94194.03;;;1.41;61.88
20009;BME280;10165;42.662;23.260;2023-02-01T04:30:12;94195.28;;;1.25;63.07
20009;BME280;10165;42.662;23.260;2023-02-01T04:32:40;94198.06;;;1.33;63.15
20009;BME280;10165;42.662;23.260;2023-02-01T04:35:07;94192.25;;;1.36;63.37
20009;BME280;10165;42.662;23.260;2023-02-01T04:37:57;94186.69;;;1.57;62.87
20009;BME280;10165;42.662;23.260;2023-02-01T04:40:24;94186.09;;;1.78;62.46
20009;BME280;10165;42.662;23.260;2023-02-01T04:42:51;94189.59;;;2.06;61.45
20009;BME280;10165;42.662;23.260;2023-02-01T04:45:18;94197.19;;;1.75;61.95
20009;BME280;10165;42.662;23.260;2023-02-01T04:47:44;94197.63;;;1.64;62.83
20009;BME280;10165;42.662;23.260;2023-02-01T04:50:11;94200.44;;;1.86;62.72
20009;BME280;10165;42.662;23.260;2023-02-01T04:52:38;94198.75;;;1.76;63.54
20009;BME280;10165;42.662;23.260;2023-02-01T04:55:05;94196.97;;;1.90;63.11
20009;BME280;10165;42.662;23.260;2023-02-01T04:57:31;94198.28;;;2.07;62.76
20009;BME280;10165;42.662;23.260;2023-02-01T04:59:58;94205.31;;;1.79;63.25
20009;BME280;10165;42.662;23.260;2023-02-01T05:02:25;94210.00;;;1.82;62.88
20009;BME280;10165;42.662;23.260;2023-02-01T05:04:54;94208.00;;;2.25;61.56
20009;BME280;10165;42.662;23.260;2023-02-01T05:07:22;94208.91;;;2.15;62.19
20009;BME280;10165;42.662;23.260;2023-02-01T05:09:49;94216.41;;;2.08;62.19
20009;BME280;10165;42.662;23.260;2023-02-01T05:12:15;94221.34;;;1.96;62.97
20009;BME280;10165;42.662;23.260;2023-02-01T05:15:00;94221.75;;;1.52;64.62
20009;BME280;10165;42.662;23.260;2023-02-01T05:17:27;94227.19;;;1.93;63.70
20009;BME280;10165;42.662;23.260;2023-02-01T05:19:54;94236.00;;;2.34;62.37
20009;BME280;10165;42.662;23.260;2023-02-01T05:22:21;94219.81;;;1.95;63.38
20009;BME280;10165;42.662;23.260;2023-02-01T05:24:48;94223.66;;;1.84;63.66
20009;BME280;10165;42.662;23.260;2023-02-01T05:27:14;94218.25;;;1.94;63.93
20009;BME280;10165;42.662;23.260;2023-02-01T05:29:41;94227.41;;;1.97;64.05
20009;BME280;10165;42.662;23.260;2023-02-01T05:32:09;94220.25;;;2.16;62.99
20009;BME280;10165;42.662;23.260;2023-02-01T05:34:48;94222.66;;;1.99;63.30
20009;BME280;10165;42.662;23.260;2023-02-01T05:37:14;94221.88;;;1.98;63.40
20009;BME280;10165;42.662;23.260;2023-02-01T05:39:41;94225.22;;;1.85;63.50
20009;BME280;10165;42.662;23.260;2023-02-01T05:42:08;94225.72;;;1.87;63.97
20009;BME280;10165;42.662;23.260;2023-02-01T05:44:34;94220.91;;;2.08;63.22
20009;BME280;10165;42.662;23.260;2023-02-01T05:47:01;94228.94;;;1.84;62.87
20009;BME280;10165;42.662;23.260;2023-02-01T05:49:28;94224.31;;;2.08;62.65
20009;BME280;10165;42.662;23.260;2023-02-01T05:51:54;94222.88;;;2.48;61.74
20009;BME280;10165;42.662;23.260;2023-02-01T05:54:23;94227.50;;;2.24;61.60
20009;BME280;10165;42.662;23.260;2023-02-01T05:56:50;94220.84;;;2.26;61.58
20009;BME280;10165;42.662;23.260;2023-02-01T05:59:16;94224.94;;;2.51;61.05
20009;BME280;10165;42.662;23.260;2023-02-01T06:01:43;94232.16;;;2.13;61.89
20009;BME280;10165;42.662;23.260;2023-02-01T06:04:10;94236.94;;;1.92;62.82
20009;BME280;10165;42.662;23.260;2023-02-01T06:06:38;94234.94;;;2.35;62.39
20009;BME280;10165;42.662;23.260;2023-02-01T06:09:08;94241.94;;;2.26;61.70
20009;BME280;10165;42.662;23.260;2023-02-01T06:11:34;94237.94;;;1.97;62.64
20009;BME280;10165;42.662;23.260;2023-02-01T06:14:04;94239.00;;;2.14;62.42
20009;BME280;10165;42.662;23.260;2023-02-01T06:16:30;94240.34;;;2.12;62.34
20009;BME280;10165;42.662;23.260;2023-02-01T06:18:58;94227.50;;;2.24;61.53
20009;BME280;10165;42.662;23.260;2023-02-01T06:21:24;94228.56;;;1.90;63.07
20009;BME280;10165;42.662;23.260;2023-02-01T06:23:53;94241.03;;;2.17;62.42
20009;BME280;10165;42.662;23.260;2023-02-01T06:26:21;94243.09;;;2.20;61.59
20009;BME280;10165;42.662;23.260;2023-02-01T06:28:48;94241.94;;;1.94;62.52
20009;BME280;10165;42.662;23.260;2023-02-01T06:31:14;94233.28;;;2.07;62.38
20009;BME280;10165;42.662;23.260;2023-02-01T06:33:41;94238.78;;;2.11;61.38
20009;BME280;10165;42.662;23.260;2023-02-01T06:36:10;94239.91;;;2.05;62.07
20009;BME280;10165;42.662;23.260;2023-02-01T06:38:38;94236.31;;;2.33;61.37
20009;BME280;10165;42.662;23.260;2023-02-01T06:41:05;94252.66;;;2.49;60.41
20009;BME280;10165;42.662;23.260;2023-02-01T06:43:56;94242.91;;;2.49;60.96
20009;BME280;10165;42.662;23.260;2023-02-01T06:46:23;94242.97;;;2.44;60.51
20009;BME280;10165;42.662;23.260;2023-02-01T06:48:50;94258.66;;;2.68;59.81
20009;BME280;10165;42.662;23.260;2023-02-01T06:51:35;94258.47;;;2.78;59.15
20009;BME280;10165;42.662;23.260;2023-02-01T06:54:02;94261.13;;;2.46;59.91
20009;BME280;10165;42.662;23.260;2023-02-01T06:56:28;94258.06;;;2.71;59.25
20009;BME280;10165;42.662;23.260;2023-02-01T06:58:57;94263.16;;;2.81;59.50
20009;BME280;10165;42.662;23.260;2023-02-01T07:01:24;94268.44;;;2.95;58.21
20009;BME280;10165;42.662;23.260;2023-02-01T07:03:51;94271.06;;;2.81;58.89
20009;BME280;10165;42.662;23.260;2023-02-01T07:06:18;94291.00;;;3.14;57.38
20009;BME280;10165;42.662;23.260;2023-02-01T07:08:45;94295.41;;;3.05;58.88
20009;BME280;10165;42.662;23.260;2023-02-01T07:11:13;94293.75;;;2.50;59.43
20009;BME280;10165;42.662;23.260;2023-02-01T07:13:40;94299.06;;;2.63;58.73
20009;BME280;10165;42.662;23.260;2023-02-01T07:16:11;94298.06;;;3.05;58.42
20009;BME280;10165;42.662;23.260;2023-02-01T07:18:38;94285.41;;;2.75;58.81
20009;BME280;10165;42.662;23.260;2023-02-01T07:21:05;94293.28;;;2.61;59.95
20009;BME280;10165;42.662;23.260;2023-02-01T07:23:32;94293.06;;;3.04;58.38
20009;BME280;10165;42.662;23.260;2023-02-01T07:26:02;94297.94;;;2.83;59.37
20009;BME280;10165;42.662;23.260;2023-02-01T07:28:32;94300.06;;;2.81;58.81
20009;BME280;10165;42.662;23.260;2023-02-01T07:31:07;94299.66;;;2.74;59.44
20009;BME280;10165;42.662;23.260;2023-02-01T07:33:36;94302.75;;;3.35;57.47
20009;BME280;10165;42.662;23.260;2023-02-01T07:36:05;94311.72;;;3.62;57.42
20009;BME280;10165;42.662;23.260;2023-02-01T07:38:32;94301.66;;;3.50;56.94
20009;BME280;10165;42.662;23.260;2023-02-01T07:41:02;94303.66;;;3.45;58.22
20009;BME280;10165;42.662;23.260;2023-02-01T07:43:29;94309.69;;;3.04;58.40
20009;BME280;10165;42.662;23.260;2023-02-01T07:45:56;94303.91;;;3.57;56.61
20009;BME280;10165;42.662;23.260;2023-02-01T07:48:24;94300.50;;;3.43;57.43
20009;BME280;10165;42.662;23.260;2023-02-01T07:51:08;94302.44;;;2.96;57.74
20009;BME280;10165;42.662;23.260;2023-02-01T07:53:35;94306.34;;;3.26;56.24
20009;BME280;10165;42.662;23.260;2023-02-01T07:56:03;94303.16;;;3.29;56.97
20009;BME280;10165;42.662;23.260;2023-02-01T07:58:30;94309.94;;;2.89;57.74
20009;BME280;10165;42.662;23.260;2023-02-01T08:00:57;94315.84;;;3.27;56.82
20009;BME280;10165;42.662;23.260;2023-02-01T08:03:42;94313.53;;;3.25;56.79
20009;BME280;10165;42.662;23.260;2023-02-01T08:06:09;94323.06;;;2.94;58.58
20009;BME280;10165;42.662;23.260;2023-02-01T08:08:35;94321.72;;;3.10;56.84
20009;BME280;10165;42.662;23.260;2023-02-01T08:11:04;94336.06;;;3.72;56.49
20009;BME280;10165;42.662;23.260;2023-02-01T08:13:33;94329.06;;;3.41;57.07
20009;BME280;10165;42.662;23.260;2023-02-01T08:16:01;94325.25;;;3.47;56.23
20009;BME280;10165;42.662;23.260;2023-02-01T08:18:28;94318.47;;;3.81;55.86
20009;BME280;10165;42.662;23.260;2023-02-01T08:20:55;94311.91;;;3.11;56.98
20009;BME280;10165;42.662;23.260;2023-02-01T08:23:22;94313.22;;;3.41;57.85
20009;BME280;10165;42.662;23.260;2023-02-01T08:25:49;94320.56;;;3.44;56.87
20009;BME280;10165;42.662;23.260;2023-02-01T08:28:16;94321.72;;;3.10;57.42
20009;BME280;10165;42.662;23.260;2023-02-01T08:30:43;94322.06;;;2.90;58.26
20009;BME280;10165;42.662;23.260;2023-02-01T08:33:09;94325.31;;;3.01;58.13
20009;BME280;10165;42.662;23.260;2023-02-01T08:35:37;94330.38;;;2.83;58.85
20009;BME280;10165;42.662;23.260;2023-02-01T08:38:09;94325.44;;;3.36;56.83
20009;BME280;10165;42.662;23.260;2023-02-01T08:40:36;94324.56;;;3.27;57.83
20009;BME280;10165;42.662;23.260;2023-02-01T08:43:03;94314.19;;;3.45;58.63
20009;BME280;10165;42.662;23.260;2023-02-01T08:45:29;94330.34;;;3.29;57.09
20009;BME280;10165;42.662;23.260;2023-02-01T08:47:56;94330.91;;;3.54;56.76
20009;BME280;10165;42.662;23.260;2023-02-01T08:50:24;94323.56;;;3.64;56.43
20009;BME280;10165;42.662;23.260;2023-02-01T08:52:52;94320.44;;;3.62;55.74
20009;BME280;10165;42.662;23.260;2023-02-01T08:55:20;94301.25;;;3.70;56.19
20009;BME280;10165;42.662;23.260;2023-02-01T08:57:46;94309.47;;;3.69;55.15
20009;BME280;10165;42.662;23.260;2023-02-01T09:00:15;94302.41;;;3.78;55.11
20009;BME280;10165;42.662;23.260;2023-02-01T09:02:43;94304.63;;;3.98;55.40
20009;BME280;10165;42.662;23.260;2023-02-01T09:05:10;94315.44;;;4.10;54.04
20009;BME280;10165;42.662;23.260;2023-02-01T09:07:37;94321.47;;;3.89;54.25
20009;BME280;10165;42.662;23.260;2023-02-01T09:10:05;94322.53;;;4.01;54.97
20009;BME280;10165;42.662;23.260;2023-02-01T09:12:32;94329.53;;;4.19;53.57
20009;BME280;10165;42.662;23.260;2023-02-01T09:14:59;94334.41;;;3.76;55.07
20009;BME280;10165;42.662;23.260;2023-02-01T09:17:28;94331.50;;;4.14;55.00
20009;BME280;10165;42.662;23.260;2023-02-01T09:19:56;94325.88;;;3.79;55.16
20009;BME280;10165;42.662;23.260;2023-02-01T09:22:23;94329.81;;;3.68;55.01
20009;BME280;10165;42.662;23.260;2023-02-01T09:24:53;94340.00;;;3.75;55.25
20009;BME280;10165;42.662;23.260;2023-02-01T09:27:21;94353.66;;;4.04;54.20
20009;BME280;10165;42.662;23.260;2023-02-01T09:29:48;94334.03;;;4.19;53.55
20009;BME280;10165;42.662;23.260;2023-02-01T09:32:20;94322.91;;;4.08;54.31
20009;BME280;10165;42.662;23.260;2023-02-01T09:34:47;94318.84;;;3.89;54.40
20009;BME280;10165;42.662;23.260;2023-02-01T09:37:14;94320.88;;;4.27;53.65
20009;BME280;10165;42.662;23.260;2023-02-01T09:39:41;94314.72;;;4.32;52.61
20009;BME280;10165;42.662;23.260;2023-02-01T09:47:17;94301.06;;;3.67;55.13
20009;BME280;10165;42.662;23.260;2023-02-01T09:49:56;94295.56;;;3.77;54.07
20009;BME280;10165;42.662;23.260;2023-02-01T09:52:29;94294.44;;;4.27;53.24
20009;BME280;10165;42.662;23.260;2023-02-01T09:55:04;94297.19;;;4.22;52.84
20009;BME280;10165;42.662;23.260;2023-02-01T10:00:19;94280.50;;;4.36;51.67
20009;BME280;10165;42.662;23.260;2023-02-01T10:02:49;94274.94;;;4.68;51.38
20009;BME280;10165;42.662;23.260;2023-02-01T10:05:29;94282.09;;;4.37;51.08
20009;BME280;10165;42.662;23.260;2023-02-01T10:08:13;94279.84;;;5.14;50.64
20009;BME280;10165;42.662;23.260;2023-02-01T10:10:48;94280.19;;;4.81;49.93
20009;BME280;10165;42.662;23.260;2023-02-01T10:16:17;94274.91;;;4.59;51.72
20009;BME280;10165;42.662;23.260;2023-02-01T10:18:51;94269.97;;;4.97;51.17
20009;BME280;10165;42.662;23.260;2023-02-01T10:26:46;94259.06;;;4.99;50.80
20009;BME280;10165;42.662;23.260;2023-02-01T10:29:34;94263.97;;;4.83;51.01
20009;BME280;10165;42.662;23.260;2023-02-01T10:32:11;94256.38;;;4.81;51.00
20009;BME280;10165;42.662;23.260;2023-02-01T10:34:39;94252.72;;;4.69;51.09
20009;BME280;10165;42.662;23.260;2023-02-01T10:37:36;94249.44;;;4.94;51.26
20009;BME280;10165;42.662;23.260;2023-02-01T10:40:16;94262.25;;;4.78;51.16
20009;BME280;10165;42.662;23.260;2023-02-01T10:42:44;94245.00;;;4.81;50.21
20009;BME280;10165;42.662;23.260;2023-02-01T10:45:16;94249.81;;;4.48;50.77
20009;BME280;10165;42.662;23.260;2023-02-01T10:47:44;94256.88;;;4.92;51.39
20009;BME280;10165;42.662;23.260;2023-02-01T10:50:33;94254.34;;;4.87;50.24
20009;BME280;10165;42.662;23.260;2023-02-01T10:53:12;94252.75;;;5.08;50.63
20009;BME280;10165;42.662;23.260;2023-02-01T10:58:19;94247.69;;;4.59;51.31
20009;BME280;10165;42.662;23.260;2023-02-01T11:00:57;94240.38;;;4.64;50.78
20009;BME280;10165;42.662;23.260;2023-02-01T11:03:36;94244.03;;;4.77;50.87
20009;BME280;10165;42.662;23.260;2023-02-01T11:08:48;94260.69;;;5.08;50.43
20009;BME280;10165;42.662;23.260;2023-02-01T11:11:16;94267.59;;;4.87;50.73
20009;BME280;10165;42.662;23.260;2023-02-01T11:13:52;94259.13;;;5.07;50.50
20009;BME280;10165;42.662;23.260;2023-02-01T11:16:19;94246.72;;;4.86;50.87
20009;BME280;10165;42.662;23.260;2023-02-01T11:18:53;94241.94;;;4.96;51.37
20009;BME280;10165;42.662;23.260;2023-02-01T11:21:20;94245.69;;;5.43;50.78
20009;BME280;10165;42.662;23.260;2023-02-01T11:23:48;94240.25;;;5.00;50.88
20009;BME280;10165;42.662;23.260;2023-02-01T11:26:24;94222.72;;;5.21;50.32
20009;BME280;10165;42.662;23.260;2023-02-01T11:29:11;94226.19;;;5.30;51.07
20009;BME280;10165;42.662;23.260;2023-02-01T11:31:42;94232.50;;;5.12;50.13
20009;BME280;10165;42.662;23.260;2023-02-01T11:34:26;94227.25;;;5.29;49.43
20009;BME280;10165;42.662;23.260;2023-02-01T11:36:58;94217.34;;;5.44;49.39
20009;BME280;10165;42.662;23.260;2023-02-01T11:39:31;94222.97;;;5.51;49.12
20009;BME280;10165;42.662;23.260;2023-02-01T11:42:12;94228.56;;;5.58;48.87
20009;BME280;10165;42.662;23.260;2023-02-01T11:44:42;94227.63;;;4.97;50.13
20009;BME280;10165;42.662;23.260;2023-02-01T11:47:27;94215.31;;;5.49;49.32
20009;BME280;10165;42.662;23.260;2023-02-01T11:49:59;94220.94;;;5.48;49.23
20009;BME280;10165;42.662;23.260;2023-02-01T11:55:27;94181.53;;;5.63;49.12
20009;BME280;10165;42.662;23.260;2023-02-01T12:01:22;94194.75;;;5.46;49.25
20009;BME280;10165;42.662;23.260;2023-02-01T12:30:10;94172.41;;;5.21;49.78
20009;BME280;10165;42.662;23.260;2023-02-01T12:35:54;94175.41;;;5.28;49.88
20009;BME280;10165;42.662;23.260;2023-02-01T12:38:53;94170.69;;;5.08;50.07
20009;BME280;10165;42.662;23.260;2023-02-01T12:44:24;94178.38;;;5.36;49.63
20009;BME280;10165;42.662;23.260;2023-02-01T12:47:05;94178.50;;;5.13;50.42
20009;BME280;10165;42.662;23.260;2023-02-01T12:49:58;94181.47;;;5.38;49.87
20009;BME280;10165;42.662;23.260;2023-02-01T12:52:42;94188.63;;;5.20;49.79
20009;BME280;10165;42.662;23.260;2023-02-01T13:01:11;94190.34;;;5.33;49.87
20009;BME280;10165;42.662;23.260;2023-02-01T13:04:01;94191.31;;;5.54;49.63
20009;BME280;10165;42.662;23.260;2023-02-01T13:06:39;94190.56;;;5.71;48.83
20009;BME280;10165;42.662;23.260;2023-02-01T13:11:48;94184.97;;;5.81;48.42
20009;BME280;10165;42.662;23.260;2023-02-01T13:17:26;94194.63;;;5.86;48.33
20009;BME280;10165;42.662;23.260;2023-02-01T13:22:39;94196.78;;;5.58;48.18
20009;BME280;10165;42.662;23.260;2023-02-01T13:27:37;94179.47;;;6.29;45.88
20009;BME280;10165;42.662;23.260;2023-02-01T13:30:23;94181.38;;;5.94;47.08
20009;BME280;10165;42.662;23.260;2023-02-01T13:41:33;94166.44;;;5.90;45.30
20009;BME280;10165;42.662;23.260;2023-02-01T13:44:11;94161.81;;;6.50;45.01
20009;BME280;10165;42.662;23.260;2023-02-01T13:46:44;94172.53;;;5.90;45.39
20009;BME280;10165;42.662;23.260;2023-02-01T13:49:22;94178.09;;;6.06;45.47
20009;BME280;10165;42.662;23.260;2023-02-01T13:51:55;94173.06;;;6.39;45.55
20009;BME280;10165;42.662;23.260;2023-02-01T13:54:31;94173.13;;;6.13;46.34
20009;BME280;10165;42.662;23.260;2023-02-01T13:57:00;94179.47;;;6.38;45.74
20009;BME280;10165;42.662;23.260;2023-02-01T13:59:46;94181.31;;;6.54;45.33
20009;BME280;10165;42.662;23.260;2023-02-01T14:08:10;94193.22;;;6.31;46.33
20009;BME280;10165;42.662;23.260;2023-02-01T14:13:34;94200.25;;;6.10;46.22
20009;BME280;10165;42.662;23.260;2023-02-01T14:32:03;94185.75;;;6.24;44.70
20009;BME280;10165;42.662;23.260;2023-02-01T14:37:24;94169.63;;;6.47;45.59
20009;BME280;10165;42.662;23.260;2023-02-01T14:50:43;94175.28;;;5.59;47.74
20009;BME280;10165;42.662;23.260;2023-02-01T14:55:43;94176.22;;;5.81;47.18
20009;BME280;10165;42.662;23.260;2023-02-01T14:58:42;94169.84;;;5.99;46.97
20009;BME280;10165;42.662;23.260;2023-02-01T15:01:34;94184.16;;;5.72;47.64
20009;BME280;10165;42.662;23.260;2023-02-01T15:04:08;94169.50;;;5.83;47.05
20009;BME280;10165;42.662;23.260;2023-02-01T15:09:14;94168.28;;;6.06;46.75
20009;BME280;10165;42.662;23.260;2023-02-01T15:12:02;94164.53;;;6.71;46.18
20009;BME280;10165;42.662;23.260;2023-02-01T15:14:36;94170.91;;;6.15;46.28
20009;BME280;10165;42.662;23.260;2023-02-01T15:20:03;94156.59;;;5.73;47.50
20009;BME280;10165;42.662;23.260;2023-02-01T15:22:38;94150.97;;;5.92;47.06
20009;BME280;10165;42.662;23.260;2023-02-01T15:25:05;94140.59;;;6.42;46.29
20009;BME280;10165;42.662;23.260;2023-02-01T15:27:33;94140.97;;;6.23;46.49
20009;BME280;10165;42.662;23.260;2023-02-01T15:30:07;94127.13;;;6.00;48.01
20009;BME280;10165;42.662;23.260;2023-02-01T15:32:37;94123.97;;;6.15;45.36
20009;BME280;10165;42.662;23.260;2023-02-01T15:35:46;94131.06;;;6.41;44.93
20009;BME280;10165;42.662;23.260;2023-02-01T15:41:06;94135.56;;;6.49;45.29
20009;BME280;10165;42.662;23.260;2023-02-01T15:46:33;94139.88;;;6.70;44.54
20009;BME280;10165;42.662;23.260;2023-02-01T15:49:02;94134.22;;;7.10;44.81
20009;BME280;10165;42.662;23.260;2023-02-01T15:51:31;94122.91;;;6.92;43.83
20009;BME280;10165;42.662;23.260;2023-02-01T15:54:04;94131.91;;;6.70;43.35
20009;BME280;10165;42.662;23.260;2023-02-01T15:56:35;94125.72;;;6.03;45.27
20009;BME280;10165;42.662;23.260;2023-02-01T15:59:05;94127.72;;;6.06;45.72
20009;BME280;10165;42.662;23.260;2023-02-01T16:01:38;94139.13;;;5.81;46.61
20009;BME280;10165;42.662;23.260;2023-02-01T16:04:25;94140.97;;;5.71;47.32
20009;BME280;10165;42.662;23.260;2023-02-01T16:06:58;94139.44;;;5.88;46.64
20009;BME280;10165;42.662;23.260;2023-02-01T16:09:39;94144.25;;;6.11;46.33
20009;BME280;10165;42.662;23.260;2023-02-01T16:14:57;94160.78;;;5.83;47.15
20009;BME280;10165;42.662;23.260;2023-02-01T16:17:24;94152.53;;;5.50;48.13
20009;BME280;10165;42.662;23.260;2023-02-01T16:19:51;94176.22;;;6.15;46.68